Time;durP1;ratioP1;P1;durP2;ratioP2;P2;SDS_P1;SDS_P2;PMS_P1;PMS_P2;Temp;Humidity;BMP_temperature;BMP_pressure;BME280_temperature;BME280_humidity;BME280_pressure;Samples;Min_cycle;Max_cycle;Signal;HPM_P1;HPM_P2
2021/11/27 00:00:06;;;;;;;131.98;47.17;;;;;;;5.61;70.92;98466.00;5051393;28;20032;-85
2021/11/27 00:02:32;;;;;;;127.82;50.25;;;;;;;6.03;71.53;98549.47;5051172;28;20029;-85
2021/11/27 00:04:57;;;;;;;134.80;47.85;;;;;;;4.88;71.57;98376.56;5049776;28;20071;-85
2021/11/27 00:07:23;;;;;;;112.20;50.20;;;;;;;5.58;71.39;98537.03;5050133;28;20414;-84
2021/11/27 00:09:48;;;;;;;136.10;51.55;;;;;;;5.65;71.39;98496.09;5066796;28;20025;-84
2021/11/27 00:12:14;;;;;;;152.45;54.92;;;;;;;5.67;71.82;98488.06;5051252;28;20035;-85
2021/11/27 00:14:39;;;;;;;127.35;55.17;;;;;;;5.88;71.45;98534.59;5051231;28;20028;-85
2021/11/27 00:17:05;;;;;;;106.80;47.78;;;;;;;6.42;71.49;98608.84;5051273;28;20033;-84
2021/11/27 00:19:30;;;;;;;107.40;47.28;;;;;;;6.34;71.36;98590.53;5051184;28;20049;-84
2021/11/27 00:21:56;;;;;;;101.38;45.88;;;;;;;6.50;71.63;98595.66;5049768;28;20041;-85
2021/11/27 00:24:21;;;;;;;102.82;47.17;;;;;;;6.01;71.58;98501.66;5049743;28;20025;-89
2021/11/27 00:26:47;;;;;;;101.03;45.80;;;;;;;5.99;71.07;98494.97;5051138;28;20029;-88
2021/11/27 00:29:13;;;;;;;130.05;49.60;;;;;;;6.12;71.97;98510.91;5051233;28;20028;-89
2021/11/27 00:31:41;;;;;;;92.82;44.53;;;;;;;5.98;71.48;98488.09;5049864;28;20037;-89
2021/11/27 00:34:07;;;;;;;130.68;42.20;;;;;;;6.63;71.66;98576.72;5051311;28;20025;-90
2021/11/27 00:36:33;;;;;;;92.83;41.33;;;;;;;6.36;71.63;98521.22;5051220;28;20036;-88
2021/11/27 00:38:59;;;;;;;98.47;42.67;;;;;;;5.82;71.96;98469.81;5051053;28;20028;-89
2021/11/27 00:41:25;;;;;;;84.82;38.88;;;;;;;6.64;71.65;98544.25;5049595;28;20114;-87
2021/11/27 00:43:50;;;;;;;83.55;37.90;;;;;;;6.40;71.98;98520.88;5050884;28;20086;-89
2021/11/27 00:46:16;;;;;;;134.43;40.10;;;;;;;5.93;71.57;98457.16;5050859;28;20032;-89
2021/11/27 00:48:41;;;;;;;94.50;38.45;;;;;;;6.34;71.78;98509.28;5066379;28;20304;-89
2021/11/27 00:51:11;;;;;;;90.10;37.92;;;;;;;6.53;72.13;98518.47;5049750;28;20036;-89
2021/11/27 00:53:37;;;;;;;98.88;35.92;;;;;;;6.63;72.00;98537.38;5049714;28;20075;-89
2021/11/27 00:56:03;;;;;;;145.85;37.53;;;;;;;6.27;71.57;98496.06;5066410;28;20024;-89
2021/11/27 00:58:29;;;;;;;86.53;34.97;;;;;;;6.50;71.84;98545.84;5049646;28;20025;-89
2021/11/27 01:01:00;;;;;;;77.80;36.47;;;;;;;6.10;71.64;98494.56;5049748;28;20035;-89
2021/11/27 01:03:28;;;;;;;60.00;33.08;;;;;;;6.18;71.69;98504.97;5049423;28;20094;-89
2021/11/27 01:05:57;;;;;;;104.38;38.05;;;;;;;6.20;71.58;98500.38;5050776;28;20029;-89
2021/11/27 01:08:23;;;;;;;83.40;37.97;;;;;;;5.85;71.62;98411.84;5049644;28;20056;-88
2021/11/27 01:10:55;;;;;;;86.45;35.28;;;;;;;6.56;71.34;98516.28;5049712;28;20068;-89
2021/11/27 01:13:21;;;;;;;111.88;36.80;;;;;;;6.34;71.42;98480.44;5053288;28;20029;-90
2021/11/27 01:15:47;;;;;;;135.20;36.83;;;;;;;6.55;71.84;98503.34;5053153;28;20031;-89
2021/11/27 01:18:13;;;;;;;77.22;36.42;;;;;;;6.24;71.52;98475.44;5053182;28;20032;-89
2021/11/27 01:20:43;;;;;;;73.00;35.90;;;;;;;6.16;71.47;98441.44;5054485;28;20060;-89
2021/11/27 01:23:10;;;;;;;75.68;35.25;;;;;;;5.70;71.20;98370.69;5069851;28;20036;-85
2021/11/27 01:25:36;;;;;;;62.17;31.92;;;;;;;5.77;71.54;98381.28;5052999;28;20028;-83
2021/11/27 01:28:03;;;;;;;68.40;33.90;;;;;;;4.98;71.42;98310.00;5053039;28;20032;-84
2021/11/27 01:30:28;;;;;;;82.85;37.45;;;;;;;6.15;71.74;98504.50;5052967;28;20031;-86
2021/11/27 01:32:54;;;;;;;92.97;41.85;;;;;;;5.83;71.91;98456.53;5052883;28;20119;-85
2021/11/27 01:35:20;;;;;;;140.55;46.38;;;;;;;6.00;72.10;98483.50;5054098;28;20063;-84
2021/11/27 01:37:46;;;;;;;127.82;45.30;;;;;;;5.41;71.69;98415.09;5053968;28;20108;-83
2021/11/27 01:40:17;;;;;;;113.65;43.70;;;;;;;4.87;71.68;98327.88;5053978;28;20036;-84
2021/11/27 01:42:43;;;;;;;89.97;38.75;;;;;;;5.37;72.06;98405.94;5069503;28;20124;-83
2021/11/27 01:45:10;;;;;;;80.50;40.67;;;;;;;5.63;71.99;98422.13;5052627;28;20031;-84
2021/11/27 01:47:36;;;;;;;71.95;35.42;;;;;;;5.96;71.84;98459.44;5054096;28;20056;-84
2021/11/27 01:50:04;;;;;;;74.63;38.88;;;;;;;5.69;72.16;98423.25;5053764;28;20025;-83
2021/11/27 01:52:30;;;;;;;62.10;34.78;;;;;;;5.90;71.80;98460.13;5052404;28;20387;-84
2021/11/27 01:54:55;;;;;;;69.63;29.13;;;;;;;5.25;72.02;98337.47;5053936;28;20029;-85
2021/11/27 01:57:21;;;;;;;65.40;28.90;;;;;;;6.07;72.30;98460.84;5069115;28;20028;-86
2021/11/27 01:59:47;;;;;;;73.22;31.00;;;;;;;6.35;72.35;98493.38;5052395;28;20104;-83
2021/11/27 02:02:14;;;;;;;53.45;27.65;;;;;;;6.34;72.19;98511.91;5052371;28;20029;-85
2021/11/27 02:04:40;;;;;;;56.60;29.98;;;;;;;5.97;72.26;98466.31;5053334;28;20021;-85
2021/11/27 02:07:06;;;;;;;55.83;30.42;;;;;;;5.46;71.81;98391.81;5052115;28;20031;-85
2021/11/27 02:09:35;;;;;;;57.08;30.30;;;;;;;6.05;71.86;98481.16;5053352;28;20021;-84
2021/11/27 02:12:05;;;;;;;50.92;28.70;;;;;;;6.06;71.64;98472.31;5052101;28;20029;-84
2021/11/27 02:14:31;;;;;;;61.83;24.87;;;;;;;6.45;72.12;98558.66;5052069;28;20025;-86
2021/11/27 02:16:57;;;;;;;74.03;26.95;;;;;;;5.67;72.24;98454.84;5052166;28;20394;-83
2021/11/27 02:19:22;;;;;;;89.88;29.67;;;;;;;6.13;71.96;98533.50;5053316;28;20210;-84
2021/11/27 02:21:48;;;;;;;85.57;29.27;;;;;;;6.44;72.69;98549.19;5053374;28;20020;-85
2021/11/27 02:24:16;;;;;;;68.05;26.92;;;;;;;6.28;72.61;98565.84;5050770;28;20497;-84
2021/11/27 02:26:43;;;;;;;61.08;26.63;;;;;;;6.21;72.71;98530.84;5051941;28;20021;-84
2021/11/27 02:29:13;;;;;;;68.35;25.60;;;;;;;6.50;72.43;98548.47;5068635;28;20025;-86
2021/11/27 02:31:39;;;;;;;63.53;27.50;;;;;;;6.20;72.90;98516.09;5053060;28;20452;-85
2021/11/27 02:34:06;;;;;;;132.13;32.70;;;;;;;5.88;72.50;98453.41;5051498;28;20020;-86
2021/11/27 02:36:33;;;;;;;104.88;31.50;;;;;;;6.16;72.63;98534.97;5051539;28;20029;-85
2021/11/27 02:38:59;;;;;;;70.25;29.20;;;;;;;6.52;72.81;98556.16;5051471;28;20036;-84
2021/11/27 02:41:25;;;;;;;73.00;26.30;;;;;;;6.51;73.09;98544.03;5052937;28;20029;-85
2021/11/27 02:43:50;;;;;;;46.23;23.20;;;;;;;6.28;72.89;98502.94;5051476;28;20029;-84
2021/11/27 02:46:16;;;;;;;51.00;25.65;;;;;;;6.33;73.06;98516.31;5052663;28;20081;-84
2021/11/27 02:48:43;;;;;;;42.17;24.08;;;;;;;5.91;72.84;98439.97;5051418;28;20055;-85
2021/11/27 02:51:09;;;;;;;45.67;23.30;;;;;;;6.56;72.53;98541.72;5052406;28;20025;-84
2021/11/27 02:53:34;;;;;;;50.80;27.55;;;;;;;5.64;72.50;98392.34;5052449;28;20025;-84
2021/11/27 02:56:02;;;;;;;57.15;26.52;;;;;;;5.87;72.73;98472.72;5051144;28;20024;-83
2021/11/27 02:58:28;;;;;;;70.63;30.52;;;;;;;6.23;72.95;98518.38;5067741;28;20494;-84
2021/11/27 03:00:58;;;;;;;82.18;29.15;;;;;;;6.06;72.80;98490.66;5051104;28;20078;-84
2021/11/27 03:03:24;;;;;;;99.60;28.98;;;;;;;5.62;72.58;98422.31;5067790;28;20026;-84
2021/11/27 03:05:51;;;;;;;67.75;23.13;;;;;;;6.23;72.82;98560.31;5050992;28;20048;-84
2021/11/27 03:08:17;;;;;;;49.58;24.95;;;;;;;5.91;72.80;98522.00;5050973;28;20482;-85
2021/11/27 03:10:43;;;;;;;51.13;23.65;;;;;;;6.20;73.16;98580.81;5050977;28;20508;-83
2021/11/27 03:13:09;;;;;;;78.70;30.60;;;;;;;5.93;72.91;98550.66;5052371;28;20036;-83
2021/11/27 03:15:41;;;;;;;50.70;23.63;;;;;;;6.13;73.28;98580.69;5052174;28;20413;-84
2021/11/27 03:18:09;;;;;;;41.78;23.77;;;;;;;5.74;72.84;98505.53;5050891;28;20024;-85
2021/11/27 03:20:35;;;;;;;45.20;24.73;;;;;;;5.34;72.36;98440.31;5052126;28;20068;-85
2021/11/27 03:23:01;;;;;;;46.38;24.13;;;;;;;5.16;72.37;98416.16;5050865;28;20067;-85
2021/11/27 03:25:26;;;;;;;42.77;23.80;;;;;;;6.26;72.46;98567.00;5051992;28;20054;-83
2021/11/27 03:27:52;;;;;;;40.40;23.30;;;;;;;5.95;72.41;98532.97;5050674;28;20498;-83
2021/11/27 03:30:19;;;;;;;45.58;23.42;;;;;;;5.89;72.61;98525.75;5051872;28;20028;-84
2021/11/27 03:32:45;;;;;;;43.23;24.13;;;;;;;6.18;72.26;98559.19;5050635;28;20508;-83
2021/11/27 03:35:11;;;;;;;49.97;25.63;;;;;;;6.38;72.27;98571.66;5051482;28;20083;-85
2021/11/27 03:37:37;;;;;;;44.03;24.15;;;;;;;6.00;72.31;98504.44;5067268;28;20506;-85
2021/11/27 03:40:05;;;;;;;51.05;23.92;;;;;;;6.42;72.78;98582.63;5051952;28;20457;-84
2021/11/27 03:42:32;;;;;;;74.82;25.33;;;;;;;5.71;72.60;98497.22;5050495;28;20032;-84
2021/11/27 03:44:58;;;;;;;74.28;28.80;;;;;;;6.44;73.11;98559.66;5051609;28;20029;-85
2021/11/27 03:47:24;;;;;;;74.47;26.83;;;;;;;5.99;73.03;98493.16;5050352;28;20033;-84
2021/11/27 03:49:51;;;;;;;62.40;25.95;;;;;;;6.47;73.14;98542.75;5051600;28;20127;-84
2021/11/27 03:52:17;;;;;;;73.38;27.88;;;;;;;6.13;73.19;98515.16;5050245;28;20031;-85
2021/11/27 03:54:43;;;;;;;128.10;31.65;;;;;;;6.50;73.25;98569.44;5067127;28;20020;-84
2021/11/27 03:57:08;;;;;;;69.50;31.25;;;;;;;6.49;73.09;98570.44;5051729;28;20119;-84
2021/11/27 03:59:34;;;;;;;56.47;28.03;;;;;;;6.52;73.13;98569.28;5051381;28;20029;-84
2021/11/27 04:02:00;;;;;;;115.72;29.67;;;;;;;6.47;73.13;98584.72;5050007;28;20523;-83
2021/11/27 04:04:25;;;;;;;78.18;30.85;;;;;;;6.16;73.26;98533.16;5051133;28;20108;-83
2021/11/27 04:06:51;;;;;;;83.22;33.55;;;;;;;6.45;73.33;98566.53;5066896;28;20117;-83
2021/11/27 04:09:16;;;;;;;92.10;35.47;;;;;;;5.80;72.86;98459.50;5050132;28;20040;-85
2021/11/27 04:11:42;;;;;;;90.15;36.33;;;;;;;5.97;73.39;98510.84;5051288;28;20579;-86
2021/11/27 04:14:08;;;;;;;89.72;35.28;;;;;;;6.65;72.95;98580.81;5066612;28;20021;-85
2021/11/27 04:16:35;;;;;;;74.63;35.33;;;;;;;6.65;72.97;98588.66;5051333;28;20033;-85
2021/11/27 04:19:01;;;;;;;107.38;37.35;;;;;;;6.17;73.42;98529.56;5050033;28;20512;-84
2021/11/27 04:21:27;;;;;;;66.80;32.63;;;;;;;6.63;73.69;98590.66;5066517;28;20021;-85
2021/11/27 04:23:52;;;;;;;71.70;34.47;;;;;;;6.38;73.17;98561.19;5049703;28;20483;-85
2021/11/27 04:26:20;;;;;;;125.60;40.55;;;;;;;6.49;73.18;98596.66;5049715;28;20028;-85
2021/11/27 04:28:47;;;;;;;119.32;46.10;;;;;;;6.55;72.92;98597.78;5066572;28;20456;-85
2021/11/27 04:31:17;;;;;;;86.00;41.35;;;;;;;6.56;73.37;98617.75;5066623;28;20449;-83
2021/11/27 04:33:43;;;;;;;88.18;40.47;;;;;;;6.46;73.45;98604.06;5066704;28;20429;-86
2021/11/27 04:36:09;;;;;;;65.88;33.42;;;;;;;5.75;73.47;98469.69;5066500;28;20044;-84
2021/11/27 04:38:34;;;;;;;117.97;41.30;;;;;;;6.19;73.67;98529.38;5049734;28;20029;-85
2021/11/27 04:40:59;;;;;;;99.07;40.42;;;;;;;6.08;73.59;98519.31;5049790;28;20048;-84
2021/11/27 04:43:25;;;;;;;92.38;37.65;;;;;;;6.28;73.81;98544.06;5049753;28;20057;-84
2021/11/27 04:45:50;;;;;;;113.85;35.75;;;;;;;6.18;73.39;98531.19;5050916;28;20021;-86
2021/11/27 04:48:16;;;;;;;89.68;37.47;;;;;;;6.52;74.07;98585.00;5054702;28;20506;-85
2021/11/27 04:50:42;;;;;;;82.70;37.45;;;;;;;6.46;73.96;98580.47;5053504;28;20486;-84
2021/11/27 04:53:09;;;;;;;86.60;40.47;;;;;;;6.58;73.77;98582.50;5055050;28;20466;-85
2021/11/27 04:55:35;;;;;;;113.05;43.33;;;;;;;6.60;73.65;98598.06;5054702;28;20059;-85
2021/11/27 04:58:01;;;;;;;126.00;39.15;;;;;;;6.57;73.21;98607.09;5070315;28;20028;-84
2021/11/27 05:00:31;;;;;;;113.35;37.25;;;;;;;6.58;73.44;98597.41;5053544;28;20068;-83
2021/11/27 05:02:56;;;;;;;131.57;44.15;;;;;;;6.26;73.19;98562.59;5054420;28;20090;-82
2021/11/27 05:05:23;;;;;;;96.32;37.95;;;;;;;6.46;73.63;98599.63;5069827;28;20433;-86
2021/11/27 05:07:49;;;;;;;84.32;33.13;;;;;;;4.59;73.26;98296.16;5053346;28;20032;-85
2021/11/27 05:10:14;;;;;;;115.25;37.65;;;;;;;6.37;73.43;98587.56;5054614;28;20055;-85
2021/11/27 05:12:40;;;;;;;118.32;38.67;;;;;;;6.36;72.86;98563.16;5054582;28;20469;-85
2021/11/27 05:15:07;;;;;;;77.07;33.28;;;;;;;6.34;73.46;98561.72;5054466;28;20486;-84
2021/11/27 05:17:33;;;;;;;75.28;35.50;;;;;;;6.30;73.24;98558.63;5054223;28;20481;-85
2021/11/27 05:19:59;;;;;;;91.45;36.25;;;;;;;6.36;73.60;98563.16;5054138;28;20079;-85
2021/11/27 05:22:25;;;;;;;77.10;37.70;;;;;;;6.65;73.67;98593.09;5052846;28;20028;-86
2021/11/27 05:24:50;;;;;;;78.88;34.72;;;;;;;6.67;73.27;98586.69;5053967;28;20029;-86
2021/11/27 05:27:19;;;;;;;84.30;38.10;;;;;;;6.67;73.34;98580.63;5052921;28;20028;-84
2021/11/27 05:29:44;;;;;;;72.68;37.15;;;;;;;6.72;73.38;98603.72;5054154;28;20025;-85
2021/11/27 05:32:22;;;;;;;84.43;38.33;;;;;;;6.47;73.36;98554.06;5054227;28;20036;-86
2021/11/27 05:34:49;;;;;;;82.38;40.30;;;;;;;6.71;73.43;98616.03;5052849;28;20029;-85
2021/11/27 05:37:15;;;;;;;74.00;37.30;;;;;;;6.74;73.53;98607.81;5052718;28;20517;-85
2021/11/27 05:39:42;;;;;;;90.40;40.97;;;;;;;5.86;73.31;98494.66;5052717;28;20095;-86
2021/11/27 05:42:08;;;;;;;79.40;39.13;;;;;;;6.41;73.23;98569.69;5053918;28;20472;-82
2021/11/27 05:44:34;;;;;;;90.28;39.63;;;;;;;6.81;72.95;98624.47;5053683;28;20036;-87
2021/11/27 05:46:59;;;;;;;73.90;37.30;;;;;;;6.29;72.78;98525.53;5053981;28;20020;-86
2021/11/27 05:49:25;;;;;;;68.90;36.63;;;;;;;6.03;73.04;98493.63;5053819;28;20028;-84
2021/11/27 05:51:50;;;;;;;77.30;39.28;;;;;;;6.60;73.40;98638.22;5053667;28;20048;-84
2021/11/27 05:54:16;;;;;;;73.40;38.83;;;;;;;6.40;72.57;98587.22;5069075;28;20052;-82
2021/11/27 05:56:41;;;;;;;103.75;50.65;;;;;;;6.81;73.17;98640.22;5053651;28;20020;-85
2021/11/27 05:59:07;;;;;;;94.63;48.70;;;;;;;6.43;72.65;98575.56;5053337;28;20035;-83
2021/11/27 06:01:33;;;;;;;88.57;47.55;;;;;;;6.62;72.69;98612.63;5053451;28;20493;-85
2021/11/27 06:03:58;;;;;;;90.03;48.58;;;;;;;6.60;73.03;98651.31;5068531;28;20116;-86
2021/11/27 06:06:24;;;;;;;92.97;51.60;;;;;;;6.82;73.27;98669.91;5053411;28;20025;-84
2021/11/27 06:08:49;;;;;;;84.72;45.55;;;;;;;6.74;72.68;98672.56;5068979;28;20078;-85
2021/11/27 06:11:15;;;;;;;82.30;41.75;;;;;;;6.28;73.36;98584.19;5053448;28;20052;-84
2021/11/27 06:13:40;;;;;;;91.47;39.17;;;;;;;6.28;72.87;98580.75;5069003;28;20059;-85
2021/11/27 06:16:08;;;;;;;80.88;41.20;;;;;;;6.59;73.38;98643.63;5053076;28;20020;-85
2021/11/27 06:18:35;;;;;;;72.68;38.55;;;;;;;6.78;73.34;98671.22;5052082;28;20025;-86
2021/11/27 06:21:03;;;;;;;73.90;37.88;;;;;;;6.61;73.47;98666.06;5053198;28;20025;-85
2021/11/27 06:23:29;;;;;;;71.05;39.83;;;;;;;6.80;73.25;98698.94;5053319;28;20029;-85
2021/11/27 06:25:55;;;;;;;78.38;44.28;;;;;;;6.30;73.44;98629.41;5053349;28;20033;-85
2021/11/27 06:28:22;;;;;;;72.18;41.88;;;;;;;6.55;73.09;98644.97;5051946;28;20032;-83
2021/11/27 06:30:47;;;;;;;78.57;44.30;;;;;;;6.83;73.48;98668.91;5053143;28;20029;-85
2021/11/27 06:33:13;;;;;;;74.88;41.22;;;;;;;6.50;73.59;98616.66;5052960;28;20516;-86
2021/11/27 06:35:38;;;;;;;73.15;41.42;;;;;;;5.98;73.31;98540.50;5052786;28;20094;-86
2021/11/27 06:38:04;;;;;;;82.45;46.15;;;;;;;6.18;73.25;98556.56;5052731;28;20489;-86
2021/11/27 06:40:30;;;;;;;85.55;49.67;;;;;;;7.08;73.18;98699.22;5051503;28;20083;-85
2021/11/27 06:42:56;;;;;;;90.72;51.72;;;;;;;6.20;73.59;98568.53;5052805;28;20032;-84
2021/11/27 06:45:23;;;;;;;81.85;49.47;;;;;;;5.73;72.85;98535.34;5052463;28;20103;-86
2021/11/27 06:47:48;;;;;;;74.88;39.08;;;;;;;6.48;73.46;98617.81;5051527;28;20036;-85
2021/11/27 06:50:14;;;;;;;63.60;38.95;;;;;;;6.92;73.60;98723.78;5051701;28;20033;-84
2021/11/27 06:52:39;;;;;;;76.65;44.97;;;;;;;6.96;72.87;98711.13;5052505;28;20025;-82
2021/11/27 06:55:05;;;;;;;84.93;51.63;;;;;;;6.89;73.47;98694.44;5052614;28;20027;-84
2021/11/27 06:57:31;;;;;;;76.20;44.75;;;;;;;5.41;73.46;98483.94;5052392;28;20174;-86
2021/11/27 06:59:56;;;;;;;64.25;41.67;;;;;;;6.98;73.23;98728.31;5052376;28;20025;-86
2021/11/27 07:02:22;;;;;;;59.15;36.22;;;;;;;7.26;73.18;98735.66;5067748;28;20125;-86
2021/11/27 07:04:47;;;;;;;68.97;42.80;;;;;;;6.93;73.22;98690.47;5052109;28;20417;-86
2021/11/27 07:07:12;;;;;;;70.07;38.75;;;;;;;7.13;72.76;98725.75;5052386;28;20037;-85
2021/11/27 07:09:38;;;;;;;63.47;36.47;;;;;;;6.71;72.99;98668.50;5051939;28;20418;-85
2021/11/27 07:12:03;;;;;;;71.20;43.38;;;;;;;6.94;73.23;98668.50;5052234;28;20025;-84
2021/11/27 07:14:29;;;;;;;64.85;37.75;;;;;;;6.66;72.96;98613.09;5067874;28;20112;-86
2021/11/27 07:16:54;;;;;;;58.70;35.05;;;;;;;7.08;73.24;98709.72;5052053;28;20082;-84
2021/11/27 07:19:20;;;;;;;58.22;33.42;;;;;;;5.83;73.26;98498.44;5067276;28;20036;-84
2021/11/27 07:21:45;;;;;;;64.10;32.70;;;;;;;7.18;73.50;98712.91;5050630;28;20032;-85
2021/11/27 07:24:11;;;;;;;61.10;33.90;;;;;;;6.65;73.24;98625.38;5051987;28;20025;-85
2021/11/27 07:26:36;;;;;;;62.17;35.10;;;;;;;6.90;72.87;98639.16;5050766;28;20464;-85
2021/11/27 07:29:02;;;;;;;66.32;36.42;;;;;;;6.69;73.44;98610.97;5051860;28;20036;-86
2021/11/27 07:31:27;;;;;;;65.18;34.88;;;;;;;6.97;73.13;98642.72;5051961;28;20021;-85
2021/11/27 07:33:53;;;;;;;70.10;40.53;;;;;;;7.64;73.09;98736.50;5067211;28;20395;-85
2021/11/27 07:36:18;;;;;;;119.30;58.33;;;;;;;7.60;73.30;98722.09;5050412;28;20028;-85
2021/11/27 07:38:44;;;;;;;97.13;47.97;;;;;;;6.88;73.30;98609.66;5067225;28;20100;-85
2021/11/27 07:41:11;;;;;;;83.47;41.17;;;;;;;7.16;73.40;98675.53;5051691;28;20021;-85
2021/11/27 07:43:37;;;;;;;80.93;41.22;;;;;;;7.04;73.15;98647.25;5050562;28;20158;-85
2021/11/27 07:46:03;;;;;;;72.35;37.95;;;;;;;7.50;73.04;98714.47;5051566;28;20116;-85
2021/11/27 07:48:31;;;;;;;58.30;33.67;;;;;;;6.68;73.52;98569.13;5066869;28;20028;-85
2021/11/27 07:50:58;;;;;;;68.63;36.00;;;;;;;7.47;73.58;98685.13;5038897;28;20025;-85
2021/11/27 07:53:24;;;;;;;50.20;29.08;;;;;;;7.51;72.86;98665.38;5034873;28;20524;-85
2021/11/27 07:55:49;;;;;;;57.15;32.75;;;;;;;7.50;72.79;98640.91;5030252;28;20112;-86
2021/11/27 07:58:15;;;;;;;52.90;31.05;;;;;;;7.78;72.97;98703.34;5030146;28;20029;-85
2021/11/27 08:00:40;;;;;;;50.38;31.08;;;;;;;6.24;72.88;98436.13;5030941;28;20112;-85
2021/11/27 08:03:06;;;;;;;63.38;34.85;;;;;;;7.42;72.67;98577.13;5030974;28;20495;-86
2021/11/27 08:05:31;;;;;;;72.53;39.22;;;;;;;8.26;72.59;98723.03;5030194;28;20414;-86
2021/11/27 08:07:57;;;;;;;57.03;32.60;;;;;;;8.16;72.50;98691.72;5031591;28;20031;-84
2021/11/27 08:10:22;;;;;;;50.70;30.08;;;;;;;8.44;72.21;98733.19;5030728;28;20087;-85
2021/11/27 08:12:47;;;;;;;59.90;33.70;;;;;;;8.39;71.94;98725.03;5029950;28;20025;-84
2021/11/27 08:15:13;;;;;;;62.80;33.80;;;;;;;7.86;71.69;98606.03;5030209;28;20479;-85
2021/11/27 08:17:41;;;;;;;60.63;32.83;;;;;;;8.16;71.97;98654.09;5039515;28;20031;-85
2021/11/27 08:20:09;;;;;;;55.15;30.13;;;;;;;8.57;72.35;98715.75;5044935;28;20036;-85
2021/11/27 08:22:35;;;;;;;62.72;31.23;;;;;;;7.85;72.03;98610.47;5030308;28;20433;-85
2021/11/27 08:25:00;;;;;;;55.15;29.58;;;;;;;8.08;72.13;98648.94;5039855;28;20029;-85
2021/11/27 08:27:29;;;;;;;50.55;29.27;;;;;;;8.15;72.40;98679.56;5046807;28;20036;-83
2021/11/27 08:29:55;;;;;;;51.28;28.02;;;;;;;8.24;72.34;98710.06;5035522;28;20032;-84
2021/11/27 08:32:21;;;;;;;52.85;28.90;;;;;;;8.21;72.60;98665.72;5036971;28;20506;-82
2021/11/27 08:34:47;;;;;;;48.60;27.40;;;;;;;7.62;72.59;98572.97;5029791;28;20031;-84
2021/11/27 08:37:12;;;;;;;50.13;28.88;;;;;;;8.00;72.59;98654.31;5034840;28;20564;-84
2021/11/27 08:39:38;;;;;;;43.95;26.77;;;;;;;7.62;72.14;98626.34;5029775;28;20056;-86
2021/11/27 08:42:04;;;;;;;48.47;28.15;;;;;;;8.10;72.17;98697.72;5042120;28;20029;-85
2021/11/27 08:44:29;;;;;;;58.85;33.05;;;;;;;7.74;72.41;98639.00;5046996;28;20067;-83
2021/11/27 08:46:55;;;;;;;69.63;34.35;;;;;;;8.17;72.50;98714.38;5048320;28;20029;-83
2021/11/27 08:49:20;;;;;;;64.05;32.72;;;;;;;8.28;72.17;98735.00;5034681;28;20041;-86
2021/11/27 08:51:46;;;;;;;54.22;31.08;;;;;;;8.34;72.65;98716.88;5047665;28;20036;-85
2021/11/27 08:54:13;;;;;;;62.95;32.70;;;;;;;7.91;72.24;98651.78;5048700;28;20063;-85
2021/11/27 08:56:38;;;;;;;60.20;33.03;;;;;;;8.32;72.50;98729.38;5043821;28;20486;-84
2021/11/27 08:59:04;;;;;;;56.80;29.40;;;;;;;7.72;72.02;98601.59;5049654;28;20090;-85
2021/11/27 09:01:29;;;;;;;62.67;33.05;;;;;;;8.12;72.04;98666.81;5046997;28;20114;-85
2021/11/27 09:03:56;;;;;;;65.70;33.90;;;;;;;7.74;72.03;98599.59;5036084;28;20029;-84
2021/11/27 09:06:23;;;;;;;69.50;34.10;;;;;;;7.77;72.16;98625.50;5050848;28;20037;-85
2021/11/27 09:08:49;;;;;;;71.10;38.05;;;;;;;8.20;72.21;98698.28;5040754;28;20033;-85
2021/11/27 09:11:18;;;;;;;67.10;33.90;;;;;;;7.76;72.41;98602.88;5035143;28;20091;-86
2021/11/27 09:13:45;;;;;;;74.13;35.60;;;;;;;8.25;72.17;98674.06;5031575;28;20021;-85
2021/11/27 09:16:11;;;;;;;67.85;36.33;;;;;;;8.26;72.34;98679.13;5032544;28;20026;-85
2021/11/27 09:18:36;;;;;;;65.63;35.10;;;;;;;7.73;72.17;98585.66;5037122;28;20488;-83
2021/11/27 09:21:02;;;;;;;69.70;36.50;;;;;;;8.26;72.31;98697.53;5039639;28;20064;-85
2021/11/27 09:23:29;;;;;;;69.50;38.55;;;;;;;8.48;72.38;98697.63;5044401;28;20033;-85
2021/11/27 09:25:55;;;;;;;88.07;40.10;;;;;;;7.72;72.88;98588.47;5055322;28;20024;-85
2021/11/27 09:28:21;;;;;;;68.88;38.33;;;;;;;7.82;72.32;98636.28;5048228;28;20040;-84
2021/11/27 09:30:47;;;;;;;79.10;41.38;;;;;;;8.16;72.32;98652.28;5047335;28;20626;-84
2021/11/27 09:33:12;;;;;;;67.00;35.80;;;;;;;7.80;72.75;98612.00;5037024;28;20087;-84
2021/11/27 09:35:38;;;;;;;75.07;38.15;;;;;;;6.69;72.83;98456.19;5044596;28;20024;-85
2021/11/27 09:38:03;;;;;;;73.13;37.65;;;;;;;7.76;72.80;98614.19;5044812;28;20078;-85
2021/11/27 09:40:37;;;;;;;80.15;41.10;;;;;;;8.35;72.61;98710.63;5032138;28;20105;-85
2021/11/27 09:43:04;;;;;;;63.97;38.13;;;;;;;8.30;72.84;98669.06;5033268;28;20033;-84
2021/11/27 09:45:31;;;;;;;72.85;38.83;;;;;;;8.52;73.08;98696.25;5035839;28;20036;-85
2021/11/27 09:47:56;;;;;;;75.10;38.72;;;;;;;7.35;72.84;98508.78;5037952;28;20025;-85
2021/11/27 09:50:24;;;;;;;69.60;36.95;;;;;;;8.25;72.54;98655.66;5067888;28;20028;-86
2021/11/27 09:52:49;;;;;;;73.80;36.97;;;;;;;8.39;72.56;98664.53;5044065;28;20029;-85
2021/11/27 09:55:17;;;;;;;75.22;37.25;;;;;;;8.26;72.51;98650.22;5048670;28;20018;-85
2021/11/27 09:57:45;;;;;;;64.90;35.95;;;;;;;8.60;72.33;98709.28;5039301;28;20052;-85
2021/11/27 10:00:11;;;;;;;73.78;35.63;;;;;;;8.22;72.46;98645.50;5043005;28;20104;-85
2021/11/27 10:02:40;;;;;;;73.47;39.53;;;;;;;8.39;72.23;98678.50;5033237;28;20476;-86
2021/11/27 10:05:08;;;;;;;66.95;34.63;;;;;;;8.03;72.55;98594.28;5046204;28;20420;-85
2021/11/27 10:07:35;;;;;;;68.30;36.13;;;;;;;8.37;72.76;98667.34;5041428;28;20508;-84
2021/11/27 10:10:02;;;;;;;75.15;36.72;;;;;;;8.18;72.95;98637.16;5033385;28;20022;-85
2021/11/27 10:12:28;;;;;;;80.30;37.95;;;;;;;8.08;72.89;98626.09;5033821;28;20029;-85
2021/11/27 10:14:54;;;;;;;70.05;36.63;;;;;;;8.35;72.80;98661.47;5042963;28;20095;-83
2021/11/27 10:17:22;;;;;;;74.18;38.38;;;;;;;8.10;73.10;98612.78;5034307;28;20533;-85
2021/11/27 10:19:50;;;;;;;84.15;42.38;;;;;;;8.45;73.44;98684.84;5042886;28;20490;-85
2021/11/27 10:22:19;;;;;;;73.15;38.67;;;;;;;8.45;73.28;98676.94;5052956;28;20032;-85
2021/11/27 10:24:47;;;;;;;80.70;38.13;;;;;;;7.22;72.81;98480.53;5047006;28;20426;-84
2021/11/27 10:27:19;;;;;;;74.95;37.20;;;;;;;7.90;72.90;98571.31;5047032;28;20493;-85
2021/11/27 10:29:59;;;;;;;88.78;41.90;;;;;;;8.48;73.39;98648.44;5049473;28;20036;-85
2021/11/27 10:32:39;;;;;;;77.00;34.15;;;;;;;8.43;73.50;98648.19;5045743;28;20032;-85
2021/11/27 10:35:11;;;;;;;88.55;43.40;;;;;;;8.24;73.19;98614.59;5046763;28;20041;-85
2021/11/27 10:37:53;;;;;;;77.68;38.22;;;;;;;8.16;73.32;98625.19;5057902;28;20037;-84
2021/11/27 10:40:24;;;;;;;89.07;43.13;;;;;;;7.68;72.86;98508.38;5033591;28;20561;-84
2021/11/27 10:42:55;;;;;;;87.10;42.00;;;;;;;7.86;72.97;98543.75;5032278;28;20026;-85
2021/11/27 10:45:23;;;;;;;67.22;34.97;;;;;;;8.32;73.16;98617.09;5039604;28;20509;-85
2021/11/27 10:47:50;;;;;;;64.65;35.20;;;;;;;8.42;72.67;98622.09;5035491;28;20025;-85
2021/11/27 10:50:20;;;;;;;68.85;34.53;;;;;;;7.97;72.67;98540.66;5047995;28;20009;-84
2021/11/27 10:52:47;;;;;;;64.05;34.85;;;;;;;8.58;72.87;98632.38;5049760;28;20054;-85
2021/11/27 10:55:17;;;;;;;63.30;35.28;;;;;;;7.92;72.76;98526.44;5034042;28;20112;-85
2021/11/27 10:57:44;;;;;;;60.60;32.97;;;;;;;8.52;72.53;98605.00;5032728;28;20059;-85
2021/11/27 11:00:40;;;;;;;65.57;34.45;;;;;;;8.81;72.96;98651.41;5049715;28;20108;-85
2021/11/27 11:03:42;;;;;;;62.70;34.45;;;;;;;8.76;72.52;98645.09;5041987;28;20017;-85
2021/11/27 11:06:22;;;;;;;61.08;32.75;;;;;;;8.87;72.26;98655.91;5034039;28;20037;-85
2021/11/27 11:08:49;;;;;;;62.45;35.33;;;;;;;8.69;72.08;98612.63;5040037;28;20029;-85
2021/11/27 11:11:20;;;;;;;57.90;34.03;;;;;;;8.92;72.07;98655.38;5041078;28;20056;-85
2021/11/27 11:13:57;;;;;;;58.35;32.28;;;;;;;8.87;72.17;98650.66;5044675;28;20458;-84
2021/11/27 11:16:25;;;;;;;58.47;32.13;;;;;;;8.86;71.95;98651.66;5051848;28;20063;-85
2021/11/27 11:18:52;;;;;;;63.58;36.13;;;;;;;8.13;72.32;98536.97;5037721;28;20032;-84
2021/11/27 11:21:20;;;;;;;55.92;34.05;;;;;;;8.05;71.95;98510.00;5039932;28;20025;-85